Time,TemperatureF,DewpointF,PressureIn,WindDirection,WindDirectionDegrees,WindSpeedMPH,WindSpeedGustMPH,Humidity,HourlyPrecipIn,Conditions,Clouds,dailyrainin,SoftwareType,DateUTC
2013-07-26 00:01:00,57.3,42.0,30.14,SSW,213,2.0,4.0,56,0.00,,,0.00,weatherlink.com 1.10,2013-07-26 06:01:00,
2013-07-26 00:16:00,57.0,42.0,30.13,SW,218,2.0,5.0,57,0.00,,,0.00,weatherlink.com 1.10,2013-07-26 06:16:00,
2013-07-26 00:31:00,57.3,41.0,30.12,SW,219,2.0,5.0,54,0.00,,,0.00,weatherlink.com 1.10,2013-07-26 06:31:00,
2013-07-26 00:46:00,57.8,40.0,30.12,NE,53,0.0,5.0,52,0.00,,,0.00,weatherlink.com 1.10,2013-07-26 06:46:00,
2013-07-26 01:01:00,57.3,40.0,30.13,NNE,23,0.0,5.0,52,0.00,,,0.00,weatherlink.com 1.10,2013-07-26 07:01:00,
2013-07-26 01:16:00,55.9,41.0,30.13,West,265,2.0,4.0,57,0.00,,,0.00,weatherlink.com 1.10,2013-07-26 07:16:00,
2013-07-26 01:31:00,55.3,42.0,30.15,West,265,0.0,4.0,62,0.00,,,0.00,weatherlink.com 1.10,2013-07-26 07:31:00,
2013-07-26 01:46:00,53.2,44.0,30.14,SW,231,0.0,6.0,70,0.00,,,0.00,weatherlink.com 1.10,2013-07-26 07:46:00,
2013-07-26 02:01:00,54.8,43.0,30.15,SW,234,3.0,5.0,64,0.00,,,0.00,weatherlink.com 1.10,2013-07-26 08:01:00,
2013-07-26 02:16:00,55.3,43.0,30.15,SW,234,6.0,7.0,63,0.00,,,0.00,weatherlink.com 1.10,2013-07-26 08:16:00,
2013-07-26 02:31:00,56.5,42.0,30.15,SSW,201,0.0,7.0,58,0.00,,,0.00,weatherlink.com 1.10,2013-07-26 08:31:00,
2013-07-26 02:47:00,56.5,42.0,30.15,SSW,205,4.0,5.0,58,0.00,,,0.00,weatherlink.com 1.10,2013-07-26 08:47:00,
2013-07-26 03:01:00,54.1,41.0,30.16,SSW,208,1.0,4.0,62,0.00,,,0.00,weatherlink.com 1.10,2013-07-26 09:01:00,
2013-07-26 03:16:00,54.1,40.0,30.15,WSW,245,4.0,5.0,60,0.00,,,0.00,weatherlink.com 1.10,2013-07-26 09:16:00,
2013-07-26 03:31:00,54.4,41.0,30.15,WSW,245,3.0,3.0,60,0.00,,,0.00,weatherlink.com 1.10,2013-07-26 09:31:00,
2013-07-26 03:46:00,53.3,41.0,30.15,SW,223,3.0,5.0,64,0.00,,,0.00,weatherlink.com 1.10,2013-07-26 09:46:00,
2013-07-26 04:01:00,59.2,42.0,30.15,WSW,253,4.0,6.0,53,0.00,,,0.00,weatherlink.com 1.10,2013-07-26 10:01:00,
2013-07-26 04:17:00,59.0,42.0,30.15,WSW,240,4.0,6.0,54,0.00,,,0.00,weatherlink.com 1.10,2013-07-26 10:17:00,
2013-07-26 04:32:00,56.3,41.0,30.15,SW,218,4.0,5.0,57,0.00,,,0.00,weatherlink.com 1.10,2013-07-26 10:32:00,
2013-07-26 04:46:00,55.0,40.0,30.15,WSW,239,4.0,6.0,58,0.00,,,0.00,weatherlink.com 1.10,2013-07-26 10:46:00,
2013-07-26 05:02:00,55.0,41.0,30.15,SW,216,3.0,6.0,59,0.00,,,0.00,weatherlink.com 1.10,2013-07-26 11:02:00,
2013-07-26 05:16:00,53.9,40.0,30.16,SW,216,3.0,4.0,60,0.00,,,0.00,weatherlink.com 1.10,2013-07-26 11:16:00,
2013-07-26 05:32:00,52.5,40.0,30.16,SW,216,3.0,4.0,63,0.00,,,0.00,weatherlink.com 1.10,2013-07-26 11:32:00,
2013-07-26 05:46:00,52.5,40.0,30.17,SW,218,4.0,4.0,63,0.00,,,0.00,weatherlink.com 1.10,2013-07-26 11:46:00,
2013-07-26 06:02:00,51.6,40.0,30.18,WSW,242,1.0,6.0,66,0.00,,,0.00,weatherlink.com 1.10,2013-07-26 12:02:00,
2013-07-26 06:17:00,51.9,40.0,30.18,SW,233,4.0,7.0,64,0.00,,,0.00,weatherlink.com 1.10,2013-07-26 12:17:00,
2013-07-26 06:32:00,52.6,41.0,30.19,SW,220,2.0,5.0,64,0.00,,,0.00,weatherlink.com 1.10,2013-07-26 12:32:00,
2013-07-26 06:47:00,53.2,41.0,30.19,SW,236,2.0,6.0,63,0.00,,,0.00,weatherlink.com 1.10,2013-07-26 12:47:00,
2013-07-26 07:02:00,54.4,41.0,30.19,SW,236,2.0,3.0,62,0.00,,,0.00,weatherlink.com 1.10,2013-07-26 13:02:00,
2013-07-26 07:17:00,55.6,42.0,30.19,SW,236,0.0,2.0,60,0.00,,,0.00,weatherlink.com 1.10,2013-07-26 13:17:00,
2013-07-26 07:32:00,57.5,44.0,30.18,SW,236,0.0,0.0,61,0.00,,,0.00,weatherlink.com 1.10,2013-07-26 13:32:00,
2013-07-26 07:47:00,59.3,44.0,30.18,SW,236,0.0,2.0,58,0.00,,,0.00,weatherlink.com 1.10,2013-07-26 13:47:00,
2013-07-26 08:02:00,62.6,44.0,30.18,SW,236,1.0,1.0,51,0.00,,,0.00,weatherlink.com 1.10,2013-07-26 14:02:00,
2013-07-26 08:17:00,63.9,43.0,30.18,East,87,5.0,6.0,47,0.00,,,0.00,weatherlink.com 1.10,2013-07-26 14:17:00,
2013-07-26 08:32:00,65.6,46.0,30.19,ENE,64,2.0,6.0,49,0.00,,,0.00,weatherlink.com 1.10,2013-07-26 14:32:00,
2013-07-26 08:47:00,66.9,44.0,30.19,East,100,3.0,7.0,44,0.00,,,0.00,weatherlink.com 1.10,2013-07-26 14:47:00,
2013-07-26 09:02:00,68.8,43.0,30.19,East,98,2.0,5.0,40,0.00,,,0.00,weatherlink.com 1.10,2013-07-26 15:02:00,
2013-07-26 09:17:00,68.6,44.0,30.19,ENE,72,2.0,4.0,42,0.00,,,0.00,weatherlink.com 1.10,2013-07-26 15:17:00,
2013-07-26 09:32:00,68.4,46.0,30.19,ENE,74,2.0,4.0,44,0.00,,,0.00,weatherlink.com 1.10,2013-07-26 15:32:00,
2013-07-26 09:47:00,68.3,45.0,30.19,ENE,78,2.0,5.0,43,0.00,,,0.00,weatherlink.com 1.10,2013-07-26 15:47:00,
2013-07-26 10:02:00,68.4,46.0,30.18,ENE,70,4.0,7.0,44,0.00,,,0.00,weatherlink.com 1.10,2013-07-26 16:02:00,
2013-07-26 10:17:00,70.1,45.0,30.18,ENE,77,4.0,11.0,40,0.00,,,0.00,weatherlink.com 1.10,2013-07-26 16:17:00,
2013-07-26 10:32:00,70.6,46.0,30.18,East,88,7.0,9.0,41,0.00,,,0.00,weatherlink.com 1.10,2013-07-26 16:32:00,
2013-07-26 10:47:00,71.3,46.0,30.18,East,86,5.0,8.0,41,0.00,,,0.00,weatherlink.com 1.10,2013-07-26 16:47:00,
2013-07-26 11:02:00,74.4,42.0,30.17,East,100,5.0,6.0,31,0.00,,,0.00,weatherlink.com 1.10,2013-07-26 17:02:00,
2013-07-26 11:17:00,74.7,43.0,30.16,East,95,6.0,8.0,32,0.00,,,0.00,weatherlink.com 1.10,2013-07-26 17:17:00,
2013-07-26 11:32:00,76.8,41.0,30.15,East,100,7.0,10.0,28,0.00,,,0.00,weatherlink.com 1.10,2013-07-26 17:32:00,
2013-07-26 11:47:00,76.1,39.0,30.15,NE,56,5.0,10.0,26,0.00,,,0.00,weatherlink.com 1.10,2013-07-26 17:47:00,
2013-07-26 12:02:00,77.2,42.0,30.14,East,95,5.0,10.0,28,0.00,,,0.00,weatherlink.com 1.10,2013-07-26 18:02:00,
2013-07-26 12:17:00,77.6,42.0,30.13,East,83,8.0,10.0,28,0.00,,,0.00,weatherlink.com 1.10,2013-07-26 18:17:00,
2013-07-26 12:32:00,79.0,43.0,30.13,NE,53,5.0,13.0,28,0.00,,,0.00,weatherlink.com 1.10,2013-07-26 18:32:00,
2013-07-26 12:47:00,79.8,41.0,30.12,East,97,9.0,9.0,25,0.00,,,0.00,weatherlink.com 1.10,2013-07-26 18:47:00,
2013-07-26 13:02:00,80.1,43.0,30.11,East,89,9.0,13.0,27,0.00,,,0.00,weatherlink.com 1.10,2013-07-26 19:02:00,
2013-07-26 13:17:00,80.9,44.0,30.11,East,98,8.0,11.0,27,0.00,,,0.00,weatherlink.com 1.10,2013-07-26 19:17:00,
2013-07-26 13:32:00,82.4,40.0,30.10,East,87,5.0,14.0,22,0.00,,,0.00,weatherlink.com 1.10,2013-07-26 19:32:00,
2013-07-26 13:47:00,83.2,41.0,30.09,East,88,9.0,13.0,22,0.00,,,0.00,weatherlink.com 1.10,2013-07-26 19:47:00,
2013-07-26 14:02:00,83.6,36.0,30.08,East,97,3.0,16.0,18,0.00,,,0.00,weatherlink.com 1.10,2013-07-26 20:02:00,
2013-07-26 14:18:00,84.0,38.0,30.07,East,91,9.0,13.0,19,0.00,,,0.00,weatherlink.com 1.10,2013-07-26 20:18:00,
2013-07-26 14:33:00,84.0,38.0,30.07,NE,54,5.0,12.0,19,0.00,,,0.00,weatherlink.com 1.10,2013-07-26 20:33:00,
2013-07-26 14:48:00,84.9,34.0,30.06,East,97,6.0,16.0,16,0.00,,,0.00,weatherlink.com 1.10,2013-07-26 20:48:00,
2013-07-26 15:03:00,85.3,36.0,30.06,East,93,8.0,13.0,17,0.00,,,0.00,weatherlink.com 1.10,2013-07-26 21:03:00,
2013-07-26 15:18:00,86.3,38.0,30.05,NE,54,3.0,11.0,18,0.00,,,0.00,weatherlink.com 1.10,2013-07-26 21:18:00,
2013-07-26 15:33:00,86.7,35.0,30.05,WSW,237,5.0,11.0,16,0.00,,,0.00,weatherlink.com 1.10,2013-07-26 21:33:00,
2013-07-26 15:48:00,86.1,36.0,30.04,ESE,104,4.0,7.0,17,0.00,,,0.00,weatherlink.com 1.10,2013-07-26 21:48:00,
2013-07-26 16:03:00,86.7,37.0,30.04,East,89,6.0,12.0,17,0.00,,,0.00,weatherlink.com 1.10,2013-07-26 22:03:00,
2013-07-26 16:18:00,86.5,38.0,30.03,NNE,21,6.0,13.0,18,0.00,,,0.00,weatherlink.com 1.10,2013-07-26 22:18:00,
2013-07-26 16:33:00,85.9,36.0,30.03,SSE,148,1.0,9.0,17,0.00,,,0.00,weatherlink.com 1.10,2013-07-26 22:33:00,
2013-07-26 16:48:00,88.6,35.0,30.02,NNE,13,0.0,6.0,15,0.00,,,0.00,weatherlink.com 1.10,2013-07-26 22:48:00,
2013-07-26 17:03:00,87.2,39.0,30.01,WSW,244,2.0,8.0,18,0.00,,,0.00,weatherlink.com 1.10,2013-07-26 23:03:00,
2013-07-26 17:18:00,86.1,38.0,30.00,South,191,0.0,8.0,18,0.00,,,0.00,weatherlink.com 1.10,2013-07-26 23:18:00,
2013-07-26 17:33:00,86.1,35.0,30.01,SW,222,4.0,8.0,16,0.00,,,0.00,weatherlink.com 1.10,2013-07-26 23:33:00,
2013-07-26 17:48:00,85.5,39.0,30.01,SSE,164,5.0,13.0,19,0.00,,,0.00,weatherlink.com 1.10,2013-07-26 23:48:00,
2013-07-26 18:03:00,84.0,39.0,30.00,SSW,200,10.0,12.0,20,0.00,,,0.00,weatherlink.com 1.10,2013-07-27 00:03:00,
2013-07-26 18:18:00,82.8,36.0,30.00,SW,220,5.0,15.0,19,0.00,,,0.00,weatherlink.com 1.10,2013-07-27 00:18:00,
2013-07-26 18:33:00,81.4,42.0,30.00,SW,217,3.0,5.0,25,0.00,,,0.00,weatherlink.com 1.10,2013-07-27 00:33:00,
2013-07-26 18:48:00,81.2,39.0,29.99,SSW,197,7.0,10.0,22,0.00,,,0.00,weatherlink.com 1.10,2013-07-27 00:48:00,
2013-07-26 19:03:00,80.3,40.0,29.99,SSW,203,3.0,7.0,24,0.00,,,0.00,weatherlink.com 1.10,2013-07-27 01:03:00,
2013-07-26 19:18:00,80.3,43.0,30.00,SSW,203,0.0,3.0,27,0.00,,,0.00,weatherlink.com 1.10,2013-07-27 01:18:00,
2013-07-26 19:33:00,80.9,40.0,29.99,NE,35,11.0,13.0,23,0.00,,,0.00,weatherlink.com 1.10,2013-07-27 01:33:00,
2013-07-26 19:48:00,80.1,42.0,30.00,East,81,1.0,8.0,26,0.00,,,0.00,weatherlink.com 1.10,2013-07-27 01:48:00,
2013-07-26 20:03:00,78.8,43.0,30.00,WSW,252,0.0,5.0,28,0.00,,,0.00,weatherlink.com 1.10,2013-07-27 02:03:00,
2013-07-26 20:18:00,77.7,41.0,30.00,WSW,253,0.0,2.0,27,0.00,,,0.00,weatherlink.com 1.10,2013-07-27 02:18:00,
2013-07-26 20:33:00,77.7,40.0,30.01,ENE,60,4.0,8.0,26,0.00,,,0.00,weatherlink.com 1.10,2013-07-27 02:33:00,
2013-07-26 20:48:00,74.0,42.0,30.02,SSW,199,3.0,5.0,32,0.00,,,0.00,weatherlink.com 1.10,2013-07-27 02:48:00,
2013-07-26 21:03:00,69.6,43.0,30.02,SSW,199,3.0,4.0,39,0.00,,,0.00,weatherlink.com 1.10,2013-07-27 03:03:00,
2013-07-26 21:18:00,66.9,44.0,30.02,SW,236,7.0,8.0,43,0.00,,,0.00,weatherlink.com 1.10,2013-07-27 03:18:00,
2013-07-26 21:33:00,67.6,41.0,30.02,WSW,241,5.0,6.0,38,0.00,,,0.00,weatherlink.com 1.10,2013-07-27 03:33:00,
2013-07-26 21:48:00,69.1,40.0,30.02,SSW,205,7.0,9.0,35,0.00,,,0.00,weatherlink.com 1.10,2013-07-27 03:48:00,
2013-07-26 22:03:00,69.8,40.0,30.02,SW,226,0.0,10.0,34,0.00,,,0.00,weatherlink.com 1.10,2013-07-27 04:03:00,
2013-07-26 22:18:00,68.9,39.0,30.03,North,349,3.0,4.0,34,0.00,,,0.00,weatherlink.com 1.10,2013-07-27 04:18:00,
2013-07-26 22:33:00,71.1,37.0,30.03,North,350,1.0,3.0,29,0.00,,,0.00,weatherlink.com 1.10,2013-07-27 04:33:00,
2013-07-26 22:48:00,70.8,39.0,30.03,SSW,208,0.0,2.0,32,0.00,,,0.00,weatherlink.com 1.10,2013-07-27 04:48:00,
2013-07-26 23:03:00,68.3,40.0,30.03,WSW,253,0.0,5.0,36,0.00,,,0.00,weatherlink.com 1.10,2013-07-27 05:03:00,
2013-07-26 23:18:00,66.3,38.0,30.04,WSW,253,0.0,3.0,36,0.00,,,0.00,weatherlink.com 1.10,2013-07-27 05:18:00,
2013-07-26 23:33:00,65.6,38.0,30.03,WSW,238,0.0,2.0,36,0.00,,,0.00,weatherlink.com 1.10,2013-07-27 05:33:00,
2013-07-26 23:48:00,64.7,40.0,30.03,WSW,238,2.0,2.0,40,0.00,,,0.00,weatherlink.com 1.10,2013-07-27 05:48:00,